Terminal Aerodrome Forecast
Issued by NWS

Home | Current Version | Previous Version | Text Only | Print | Product List | Glossary On
Versions: 1 2 3 4 5 6 7 8 9 10 11 12 13 14 15 16 17 18 19 20 21 22 23 24 25 26 27
138
FTUS45 KPIH 230806 AAA
TAFSUN
TAF AMD
KSUN 230806Z 2308/2406 33009KT P6SM VCSH OVC025
     FM231500 33009KT P6SM VCSH BKN025 OVC035
     FM231800 VRB06KT 2SM -SN BR SCT008 BKN015
     FM240300 33007KT 5SM -SHSN BR SCT015 BKN020
      AMD LTD TO CLD VIS AND WIND TIL 231400=

USA.gov is the U.S. government's official web portal to all federal, state and local government web resources and services.